Time;durP1;ratioP1;P1;durP2;ratioP2;P2;SDS_P1;SDS_P2;PMS_P1;PMS_P2;Temp;Humidity;BMP_temperature;BMP_pressure;BME280_temperature;BME280_humidity;BME280_pressure;Samples;Min_cycle;Max_cycle;Signal;HPM_P1;HPM_P2
2022/02/27 00:00:22;;;;;;;19.80;9.20;;;;;;;;;;5042170;28;20481;-81
2022/02/27 00:02:48;;;;;;;18.67;9.45;;;;;;;;;;5049180;28;20120;-83
2022/02/27 00:05:14;;;;;;;17.23;9.60;;;;;;;;;;5072499;28;20738;-83
2022/02/27 00:07:40;;;;;;;16.38;8.32;;;;;;;;;;5047785;28;20782;-87
2022/02/27 00:10:07;;;;;;;19.95;9.55;;;;;;;;;;5063205;28;20511;-85
2022/02/27 00:12:33;;;;;;;16.23;8.95;;;;;;;;;;5063319;28;20084;-84
2022/02/27 00:14:59;;;;;;;16.52;9.70;;;;;;;;;;5045941;28;20074;-85
2022/02/27 00:17:25;;;;;;;20.38;10.07;;;;;;;;;;5063373;28;20051;-85
2022/02/27 00:19:51;;;;;;;22.77;11.20;;;;;;;;;;5062819;28;20021;-84
2022/02/27 00:22:17;;;;;;;17.73;9.63;;;;;;;;;;5063506;28;20064;-84
2022/02/27 00:24:43;;;;;;;17.50;10.32;;;;;;;;;;5040933;28;20029;-83
2022/02/27 00:27:09;;;;;;;15.50;9.32;;;;;;;;;;5055310;28;20028;-82
2022/02/27 00:29:35;;;;;;;19.83;10.32;;;;;;;;;;5057428;28;20057;-83
2022/02/27 00:32:01;;;;;;;16.83;9.48;;;;;;;;;;5058912;28;20107;-82
2022/02/27 00:34:27;;;;;;;18.67;9.88;;;;;;;;;;5058766;28;20040;-84
2022/02/27 00:36:53;;;;;;;17.23;9.57;;;;;;;;;;5058081;28;20052;-82
2022/02/27 00:39:20;;;;;;;15.68;8.80;;;;;;;;;;5058421;28;20025;-83
2022/02/27 00:41:47;;;;;;;17.52;8.90;;;;;;;;;;5058383;28;20053;-83
2022/02/27 00:44:13;;;;;;;15.32;8.50;;;;;;;;;;5057987;28;20059;-84
2022/02/27 00:46:39;;;;;;;18.63;8.57;;;;;;;;;;5056149;28;20466;-83
2022/02/27 00:49:05;;;;;;;17.88;9.05;;;;;;;;;;5058864;28;20028;-85
2022/02/27 00:51:32;;;;;;;17.23;9.75;;;;;;;;;;5075152;28;20032;-85
2022/02/27 00:53:58;;;;;;;19.80;10.75;;;;;;;;;;5057382;28;20012;-85
2022/02/27 00:56:24;;;;;;;18.23;9.68;;;;;;;;;;5062729;28;20025;-84
2022/02/27 00:58:51;;;;;;;17.13;9.32;;;;;;;;;;5057139;28;20029;-83
2022/02/27 01:01:18;;;;;;;17.73;9.10;;;;;;;;;;5059052;28;20048;-83
2022/02/27 01:03:44;;;;;;;18.65;9.80;;;;;;;;;;5055698;28;20465;-82
2022/02/27 01:06:10;;;;;;;21.30;10.10;;;;;;;;;;5056345;28;20029;-81
2022/02/27 01:08:36;;;;;;;20.98;10.65;;;;;;;;;;5056216;28;20473;-81
2022/02/27 01:11:02;;;;;;;17.65;9.65;;;;;;;;;;5037794;28;20025;-83
2022/02/27 01:13:28;;;;;;;17.30;10.20;;;;;;;;;;5055200;28;20089;-83
2022/02/27 01:15:54;;;;;;;19.65;10.48;;;;;;;;;;5037458;28;20052;-82
2022/02/27 01:18:20;;;;;;;21.60;11.68;;;;;;;;;;5054266;28;20120;-82
2022/02/27 01:20:46;;;;;;;20.10;10.63;;;;;;;;;;5056344;28;20025;-82
2022/02/27 01:23:12;;;;;;;20.05;11.52;;;;;;;;;;5055739;28;20037;-84
2022/02/27 01:25:38;;;;;;;21.52;11.27;;;;;;;;;;5036543;28;20025;-84
2022/02/27 01:28:04;;;;;;;24.40;11.52;;;;;;;;;;5037188;28;20074;-83
2022/02/27 01:30:30;;;;;;;20.80;12.23;;;;;;;;;;5056037;28;20032;-84
2022/02/27 01:32:56;;;;;;;20.27;10.55;;;;;;;;;;5037835;28;20029;-84
2022/02/27 01:35:22;;;;;;;21.92;11.75;;;;;;;;;;5055465;28;20040;-84
2022/02/27 01:37:48;;;;;;;21.20;11.60;;;;;;;;;;5037553;28;20120;-82
2022/02/27 01:40:14;;;;;;;23.33;11.90;;;;;;;;;;5055299;28;20322;-84
2022/02/27 01:42:40;;;;;;;27.60;12.57;;;;;;;;;;5061073;28;20025;-84
2022/02/27 01:45:07;;;;;;;23.55;12.50;;;;;;;;;;5060761;28;20041;-83
2022/02/27 01:47:34;;;;;;;26.35;13.07;;;;;;;;;;5060828;28;20036;-84
2022/02/27 01:50:00;;;;;;;22.95;12.68;;;;;;;;;;5061724;28;20064;-82
2022/02/27 01:52:26;;;;;;;26.08;13.02;;;;;;;;;;5054311;28;20627;-82
2022/02/27 01:54:52;;;;;;;25.35;12.90;;;;;;;;;;5056368;28;20052;-86
2022/02/27 01:57:19;;;;;;;24.77;12.25;;;;;;;;;;5057742;28;20484;-85
2022/02/27 01:59:45;;;;;;;22.95;12.30;;;;;;;;;;5056280;28;20451;-82
2022/02/27 02:02:11;;;;;;;22.45;12.23;;;;;;;;;;5053196;28;20028;-85
2022/02/27 02:04:38;;;;;;;25.05;12.57;;;;;;;;;;5034287;28;20424;-83
2022/02/27 02:07:05;;;;;;;22.27;12.05;;;;;;;;;;5052220;28;20108;-83
2022/02/27 02:09:31;;;;;;;22.98;12.27;;;;;;;;;;5035216;28;20017;-85
2022/02/27 02:11:57;;;;;;;22.02;12.13;;;;;;;;;;5056439;28;20440;-86
2022/02/27 02:14:23;;;;;;;25.13;12.77;;;;;;;;;;5056161;28;20021;-84
2022/02/27 02:16:50;;;;;;;27.33;12.65;;;;;;;;;;5037375;28;20040;-86
2022/02/27 02:19:17;;;;;;;27.17;12.68;;;;;;;;;;5055672;28;20027;-83
2022/02/27 02:21:44;;;;;;;24.30;12.60;;;;;;;;;;5058633;28;20040;-85
2022/02/27 02:24:11;;;;;;;22.77;12.75;;;;;;;;;;5060363;28;20027;-85
2022/02/27 02:26:38;;;;;;;24.73;12.80;;;;;;;;;;5060511;28;20028;-86
2022/02/27 02:29:05;;;;;;;25.00;14.32;;;;;;;;;;5061062;28;20021;-85
2022/02/27 02:31:33;;;;;;;22.73;13.07;;;;;;;;;;5064523;28;20033;-84
2022/02/27 02:34:02;;;;;;;22.15;13.18;;;;;;;;;;5047529;28;20025;-84
2022/02/27 02:36:28;;;;;;;25.50;12.93;;;;;;;;;;5060367;28;20048;-83
2022/02/27 02:38:54;;;;;;;26.80;13.20;;;;;;;;;;5037810;28;20385;-85
2022/02/27 02:41:20;;;;;;;26.08;14.55;;;;;;;;;;5037330;28;20035;-84
2022/02/27 02:43:47;;;;;;;27.02;14.35;;;;;;;;;;5036009;28;20040;-84
2022/02/27 02:46:14;;;;;;;26.67;13.52;;;;;;;;;;5055780;28;20024;-83
2022/02/27 02:48:40;;;;;;;26.92;13.90;;;;;;;;;;5038359;28;20025;-84
2022/02/27 02:51:06;;;;;;;28.48;14.50;;;;;;;;;;5057214;28;20544;-84
2022/02/27 02:53:35;;;;;;;28.55;14.88;;;;;;;;;;5057440;28;20037;-83
2022/02/27 02:56:02;;;;;;;28.63;13.90;;;;;;;;;;5057876;28;20388;-82
2022/02/27 02:58:28;;;;;;;24.98;14.13;;;;;;;;;;5040176;28;20044;-82
2022/02/27 03:00:54;;;;;;;25.30;13.85;;;;;;;;;;5057653;28;20074;-83
2022/02/27 03:03:20;;;;;;;27.58;14.82;;;;;;;;;;5057865;28;20498;-83
2022/02/27 03:05:46;;;;;;;28.35;15.18;;;;;;;;;;5038014;28;20112;-82
2022/02/27 03:08:12;;;;;;;29.02;14.50;;;;;;;;;;5055876;28;20094;-81
2022/02/27 03:10:38;;;;;;;24.63;14.85;;;;;;;;;;5055291;28;20040;-81
2022/02/27 03:13:04;;;;;;;29.17;14.93;;;;;;;;;;5055365;28;20025;-81
2022/02/27 03:15:32;;;;;;;26.75;14.90;;;;;;;;;;5055266;28;20025;-82
2022/02/27 03:17:58;;;;;;;29.00;14.48;;;;;;;;;;5055555;28;20021;-82
2022/02/27 03:20:24;;;;;;;26.52;14.15;;;;;;;;;;5055383;28;20027;-82
2022/02/27 03:22:50;;;;;;;27.90;14.73;;;;;;;;;;5055347;28;20029;-82
2022/02/27 03:25:16;;;;;;;28.27;16.15;;;;;;;;;;5037507;28;20028;-83
2022/02/27 03:27:42;;;;;;;25.70;15.20;;;;;;;;;;5055395;28;20051;-82
2022/02/27 03:30:09;;;;;;;28.60;14.32;;;;;;;;;;5066450;28;20021;-82
2022/02/27 03:32:35;;;;;;;28.20;15.05;;;;;;;;;;5064170;28;20516;-84
2022/02/27 03:35:01;;;;;;;31.10;15.63;;;;;;;;;;5058940;28;20021;-83
2022/02/27 03:37:27;;;;;;;31.77;17.77;;;;;;;;;;5059343;28;20044;-83
2022/02/27 03:39:53;;;;;;;29.85;15.27;;;;;;;;;;5060565;28;20079;-84
2022/02/27 03:42:19;;;;;;;31.73;15.30;;;;;;;;;;5057830;28;20119;-82
2022/02/27 03:44:45;;;;;;;30.92;16.23;;;;;;;;;;5057701;28;20036;-83
2022/02/27 03:47:11;;;;;;;28.50;15.27;;;;;;;;;;5038959;28;20067;-83
2022/02/27 03:49:37;;;;;;;32.50;15.57;;;;;;;;;;5056539;28;20032;-83
2022/02/27 03:52:04;;;;;;;31.70;17.33;;;;;;;;;;5056275;28;20043;-82
2022/02/27 03:54:30;;;;;;;31.73;16.38;;;;;;;;;;5054985;28;20113;-83
2022/02/27 03:56:56;;;;;;;29.08;16.40;;;;;;;;;;5055742;28;20774;-82
2022/02/27 03:59:22;;;;;;;33.03;17.05;;;;;;;;;;5059347;28;20021;-83
2022/02/27 04:01:49;;;;;;;30.25;16.20;;;;;;;;;;5059824;28;20025;-83
2022/02/27 04:04:15;;;;;;;28.95;15.73;;;;;;;;;;5058931;28;20089;-82
2022/02/27 04:06:41;;;;;;;28.60;15.80;;;;;;;;;;5059370;28;20040;-84
2022/02/27 04:09:07;;;;;;;29.85;16.48;;;;;;;;;;5058943;28;20040;-85
2022/02/27 04:11:33;;;;;;;30.55;16.88;;;;;;;;;;5058638;28;20029;-84
2022/02/27 04:13:59;;;;;;;31.63;16.83;;;;;;;;;;5058930;28;20465;-84
2022/02/27 04:16:25;;;;;;;32.75;16.08;;;;;;;;;;5040169;28;20039;-84
2022/02/27 04:18:52;;;;;;;31.40;16.73;;;;;;;;;;5036668;28;20036;-86
2022/02/27 04:21:19;;;;;;;32.05;17.27;;;;;;;;;;5036725;28;20083;-85
2022/02/27 04:23:45;;;;;;;32.13;16.70;;;;;;;;;;5039243;28;20021;-83
2022/02/27 04:26:11;;;;;;;33.67;16.88;;;;;;;;;;5058483;28;20028;-84
2022/02/27 04:28:37;;;;;;;29.10;16.67;;;;;;;;;;5055818;28;20047;-82
2022/02/27 04:31:03;;;;;;;30.80;16.23;;;;;;;;;;5055775;28;20576;-82
2022/02/27 04:33:29;;;;;;;29.15;16.05;;;;;;;;;;5057288;28;20025;-83
2022/02/27 04:35:55;;;;;;;31.38;16.70;;;;;;;;;;5038218;28;20128;-85
2022/02/27 04:38:21;;;;;;;34.65;17.90;;;;;;;;;;5052069;28;20049;-83
2022/02/27 04:40:47;;;;;;;34.20;17.85;;;;;;;;;;5056957;28;20069;-84
2022/02/27 04:43:13;;;;;;;33.80;17.52;;;;;;;;;;5055410;28;20088;-83
2022/02/27 04:45:39;;;;;;;33.35;17.95;;;;;;;;;;5056917;28;20064;-82
2022/02/27 04:48:05;;;;;;;33.60;17.08;;;;;;;;;;5038791;28;20116;-83
2022/02/27 04:50:31;;;;;;;31.30;17.63;;;;;;;;;;5037969;28;20480;-82
2022/02/27 04:52:57;;;;;;;31.95;17.40;;;;;;;;;;5037651;28;20488;-83
2022/02/27 04:55:23;;;;;;;27.60;16.92;;;;;;;;;;5039073;28;20104;-83
2022/02/27 04:57:49;;;;;;;36.63;18.00;;;;;;;;;;5057116;28;20024;-84
2022/02/27 05:00:15;;;;;;;35.00;18.17;;;;;;;;;;5056952;28;20096;-84
2022/02/27 05:02:41;;;;;;;30.50;17.83;;;;;;;;;;5056970;28;20038;-83
2022/02/27 05:05:08;;;;;;;34.10;18.95;;;;;;;;;;5056903;28;20032;-82
2022/02/27 05:07:34;;;;;;;37.42;19.23;;;;;;;;;;5043227;28;20120;-83
2022/02/27 05:10:00;;;;;;;33.50;18.58;;;;;;;;;;5044197;28;20479;-83
2022/02/27 05:12:26;;;;;;;35.35;18.92;;;;;;;;;;5055315;28;20104;-84
2022/02/27 05:14:52;;;;;;;35.75;18.55;;;;;;;;;;5055114;28;20025;-83
2022/02/27 05:17:18;;;;;;;37.20;19.88;;;;;;;;;;5055114;28;20033;-84
2022/02/27 05:19:44;;;;;;;39.05;19.50;;;;;;;;;;5054709;28;20108;-84
2022/02/27 05:22:10;;;;;;;36.90;18.52;;;;;;;;;;5032796;28;20064;-82
2022/02/27 05:24:36;;;;;;;38.10;18.88;;;;;;;;;;5055620;28;20040;-84
2022/02/27 05:27:03;;;;;;;30.98;18.50;;;;;;;;;;5034427;28;20074;-83
2022/02/27 05:29:29;;;;;;;34.47;19.67;;;;;;;;;;5053175;28;20025;-83
2022/02/27 05:31:55;;;;;;;37.20;20.08;;;;;;;;;;5052476;28;20023;-84
2022/02/27 05:34:22;;;;;;;36.92;21.55;;;;;;;;;;5051066;28;20524;-83
2022/02/27 05:36:48;;;;;;;36.30;19.15;;;;;;;;;;5051882;28;20133;-83
2022/02/27 05:39:15;;;;;;;38.28;21.20;;;;;;;;;;5052429;28;20175;-83
2022/02/27 05:41:42;;;;;;;39.10;20.70;;;;;;;;;;5035049;28;20025;-83
2022/02/27 05:44:08;;;;;;;37.97;21.23;;;;;;;;;;5052075;28;20017;-83
2022/02/27 05:46:34;;;;;;;38.85;21.27;;;;;;;;;;5034611;28;20024;-83
2022/02/27 05:49:00;;;;;;;38.38;20.95;;;;;;;;;;5052150;28;20021;-83
2022/02/27 05:51:26;;;;;;;42.72;21.85;;;;;;;;;;5036675;28;20079;-82
2022/02/27 05:53:52;;;;;;;38.63;21.05;;;;;;;;;;5054804;28;20029;-82
2022/02/27 05:56:18;;;;;;;41.00;21.08;;;;;;;;;;5057379;28;20025;-83
2022/02/27 05:58:44;;;;;;;46.28;22.73;;;;;;;;;;5041587;28;20380;-82
2022/02/27 06:01:11;;;;;;;41.63;23.05;;;;;;;;;;5041808;28;20032;-83
2022/02/27 06:03:37;;;;;;;39.17;21.48;;;;;;;;;;5039792;28;20033;-84
2022/02/27 06:06:03;;;;;;;41.65;22.27;;;;;;;;;;5057097;28;20111;-84
2022/02/27 06:08:30;;;;;;;41.13;21.98;;;;;;;;;;5058575;28;20029;-82
2022/02/27 06:10:56;;;;;;;44.15;21.70;;;;;;;;;;5040518;28;20173;-84
2022/02/27 06:13:22;;;;;;;39.80;22.05;;;;;;;;;;5058537;28;20025;-84
2022/02/27 06:15:48;;;;;;;40.90;21.63;;;;;;;;;;5040618;28;20036;-84
2022/02/27 06:18:14;;;;;;;41.80;22.55;;;;;;;;;;5057324;28;20037;-83
2022/02/27 06:20:40;;;;;;;41.05;21.83;;;;;;;;;;5038110;28;20049;-84
2022/02/27 06:23:09;;;;;;;36.35;21.15;;;;;;;;;;5040034;28;20036;-84
2022/02/27 06:25:36;;;;;;;44.08;23.55;;;;;;;;;;5057969;28;20029;-84
2022/02/27 06:28:03;;;;;;;41.67;22.17;;;;;;;;;;5037775;28;20063;-82
2022/02/27 06:30:29;;;;;;;48.63;24.27;;;;;;;;;;5057067;28;20029;-81
2022/02/27 06:32:55;;;;;;;42.92;22.60;;;;;;;;;;5037464;28;20480;-81
2022/02/27 06:35:22;;;;;;;44.85;22.50;;;;;;;;;;5054484;28;20037;-82
2022/02/27 06:37:49;;;;;;;48.45;23.55;;;;;;;;;;5059547;28;20028;-82
2022/02/27 06:40:15;;;;;;;40.60;22.65;;;;;;;;;;5041501;28;20055;-82
2022/02/27 06:42:42;;;;;;;39.30;22.33;;;;;;;;;;5059748;28;20029;-81
2022/02/27 06:45:08;;;;;;;39.65;22.50;;;;;;;;;;5058986;28;20047;-82
2022/02/27 06:47:34;;;;;;;39.70;21.23;;;;;;;;;;5038655;28;20032;-83
2022/02/27 06:50:01;;;;;;;39.47;22.10;;;;;;;;;;5059641;28;20107;-82
2022/02/27 06:52:27;;;;;;;41.85;22.42;;;;;;;;;;5068040;28;20021;-82
2022/02/27 06:54:53;;;;;;;40.30;21.33;;;;;;;;;;5061412;28;20025;-81
2022/02/27 06:57:19;;;;;;;39.22;22.02;;;;;;;;;;5059285;28;20039;-82
2022/02/27 06:59:45;;;;;;;36.55;21.20;;;;;;;;;;5059967;28;20060;-82
2022/02/27 07:02:11;;;;;;;40.42;21.02;;;;;;;;;;5058392;28;20025;-81
2022/02/27 07:04:37;;;;;;;37.78;22.25;;;;;;;;;;5057503;28;20063;-82
2022/02/27 07:07:03;;;;;;;39.38;22.65;;;;;;;;;;5043083;28;20197;-83
2022/02/27 07:09:29;;;;;;;35.28;20.40;;;;;;;;;;5063250;28;20550;-83
2022/02/27 07:11:55;;;;;;;37.22;21.67;;;;;;;;;;5062890;28;20048;-83
2022/02/27 07:14:21;;;;;;;37.05;20.23;;;;;;;;;;5045410;28;20093;-82
2022/02/27 07:16:47;;;;;;;39.80;23.58;;;;;;;;;;5063237;28;20390;-83
2022/02/27 07:19:13;;;;;;;37.85;20.77;;;;;;;;;;5062885;28;20056;-83
2022/02/27 07:21:39;;;;;;;36.15;21.48;;;;;;;;;;5063387;28;20481;-83
2022/02/27 07:24:06;;;;;;;34.63;20.50;;;;;;;;;;5044421;28;20040;-83
2022/02/27 07:26:32;;;;;;;36.75;20.58;;;;;;;;;;5059068;28;20063;-81
2022/02/27 07:28:58;;;;;;;32.83;18.52;;;;;;;;;;5077659;28;20021;-82
2022/02/27 07:31:23;;;;;;;32.58;19.75;;;;;;;;;;5077683;28;20037;-82
2022/02/27 07:33:50;;;;;;;34.05;19.23;;;;;;;;;;5071371;28;20084;-83
2022/02/27 07:36:16;;;;;;;34.80;20.13;;;;;;;;;;5060893;28;20052;-83
2022/02/27 07:38:42;;;;;;;38.50;21.38;;;;;;;;;;5040869;28;20025;-85
2022/02/27 07:41:08;;;;;;;34.70;20.15;;;;;;;;;;5039258;28;20124;-84
2022/02/27 07:43:34;;;;;;;35.72;19.70;;;;;;;;;;5056263;28;20035;-84
2022/02/27 07:46:02;;;;;;;37.03;20.70;;;;;;;;;;5055348;28;20025;-84
2022/02/27 07:48:28;;;;;;;34.40;19.60;;;;;;;;;;5064295;28;20016;-84
2022/02/27 07:50:54;;;;;;;34.75;20.23;;;;;;;;;;5077734;28;20042;-84
2022/02/27 07:53:23;;;;;;;34.78;21.10;;;;;;;;;;5042533;28;20136;-83
2022/02/27 07:55:49;;;;;;;30.17;17.92;;;;;;;;;;5058127;28;20473;-83
2022/02/27 07:58:15;;;;;;;33.72;20.48;;;;;;;;;;5060868;28;20125;-84
2022/02/27 08:00:41;;;;;;;30.95;19.92;;;;;;;;;;5059135;28;20370;-83
2022/02/27 08:03:08;;;;;;;36.05;19.88;;;;;;;;;;5040069;28;20025;-83
2022/02/27 08:05:34;;;;;;;37.22;22.52;;;;;;;;;;5041231;28;20094;-82
2022/02/27 08:08:00;;;;;;;34.03;20.00;;;;;;;;;;5040641;28;20392;-83
2022/02/27 08:10:27;;;;;;;33.38;20.35;;;;;;;;;;5037296;28;20020;-81
2022/02/27 08:12:54;;;;;;;34.15;20.73;;;;;;;;;;5036285;28;20113;-82
2022/02/27 08:15:20;;;;;;;34.95;21.17;;;;;;;;;;5054212;28;20033;-81
2022/02/27 08:17:46;;;;;;;38.20;22.60;;;;;;;;;;5066296;28;20024;-82
2022/02/27 08:20:12;;;;;;;36.28;22.85;;;;;;;;;;5063637;28;20170;-83
2022/02/27 08:22:40;;;;;;;39.72;22.63;;;;;;;;;;5056004;28;20035;-82
2022/02/27 08:25:06;;;;;;;38.67;24.70;;;;;;;;;;5059087;28;20029;-82
2022/02/27 08:27:32;;;;;;;40.88;24.63;;;;;;;;;;5056895;28;20029;-82
2022/02/27 08:29:58;;;;;;;38.90;24.42;;;;;;;;;;5056574;28;20020;-81
2022/02/27 08:32:24;;;;;;;42.75;26.48;;;;;;;;;;5055543;28;20056;-81
2022/02/27 08:34:50;;;;;;;42.55;25.98;;;;;;;;;;5036389;28;20025;-81
2022/02/27 08:37:16;;;;;;;41.17;26.20;;;;;;;;;;5054604;28;20401;-82
2022/02/27 08:39:42;;;;;;;40.15;25.73;;;;;;;;;;5039026;28;20056;-81
2022/02/27 08:42:08;;;;;;;42.88;26.33;;;;;;;;;;5054867;28;20100;-82
2022/02/27 08:44:35;;;;;;;44.85;25.77;;;;;;;;;;5055503;28;20040;-82
2022/02/27 08:47:05;;;;;;;43.55;25.75;;;;;;;;;;5056245;28;20027;-81
2022/02/27 08:49:31;;;;;;;40.75;25.60;;;;;;;;;;5056817;28;20017;-82
2022/02/27 08:51:57;;;;;;;43.20;25.70;;;;;;;;;;5059399;28;20388;-82
2022/02/27 08:54:24;;;;;;;42.05;25.80;;;;;;;;;;5057184;28;20024;-82
2022/02/27 08:56:50;;;;;;;43.53;26.48;;;;;;;;;;5057821;28;20029;-83
2022/02/27 08:59:16;;;;;;;42.97;25.25;;;;;;;;;;5058334;28;20025;-82
2022/02/27 09:01:42;;;;;;;42.92;25.55;;;;;;;;;;5057612;28;20033;-83
2022/02/27 09:04:08;;;;;;;44.22;23.98;;;;;;;;;;5057733;28;20025;-81
2022/02/27 09:06:34;;;;;;;40.45;24.52;;;;;;;;;;5057768;28;20029;-84
2022/02/27 09:09:00;;;;;;;42.85;26.15;;;;;;;;;;5056093;28;20127;-82
2022/02/27 09:11:26;;;;;;;38.60;25.08;;;;;;;;;;5053323;28;20037;-83
2022/02/27 09:13:52;;;;;;;35.85;23.30;;;;;;;;;;5053906;28;20096;-84
2022/02/27 09:16:18;;;;;;;36.67;22.23;;;;;;;;;;5044009;28;20084;-84
2022/02/27 09:18:44;;;;;;;34.00;20.80;;;;;;;;;;5055701;28;20098;-84
2022/02/27 09:21:10;;;;;;;37.95;22.95;;;;;;;;;;5038685;28;20032;-85
2022/02/27 09:23:36;;;;;;;38.45;23.02;;;;;;;;;;5039863;28;20025;-83
2022/02/27 09:26:03;;;;;;;36.80;21.55;;;;;;;;;;5056779;28;20032;-84
2022/02/27 09:28:29;;;;;;;37.92;23.70;;;;;;;;;;5037706;28;20029;-83
2022/02/27 09:30:55;;;;;;;37.30;22.85;;;;;;;;;;5058040;28;20093;-84
2022/02/27 09:33:21;;;;;;;35.45;23.67;;;;;;;;;;5044644;28;20056;-85
2022/02/27 09:35:49;;;;;;;36.97;22.25;;;;;;;;;;5043287;28;20045;-82
2022/02/27 09:38:15;;;;;;;38.92;22.70;;;;;;;;;;5058670;28;20374;-84
2022/02/27 09:40:41;;;;;;;33.90;20.48;;;;;;;;;;5059335;28;20087;-82
2022/02/27 09:43:07;;;;;;;38.72;22.30;;;;;;;;;;5060969;28;20032;-83
2022/02/27 09:45:34;;;;;;;36.70;22.02;;;;;;;;;;5061361;28;20064;-83
2022/02/27 09:48:00;;;;;;;37.08;22.10;;;;;;;;;;5043506;28;20059;-83
2022/02/27 09:50:27;;;;;;;38.10;22.33;;;;;;;;;;5060402;28;20017;-83
2022/02/27 09:52:53;;;;;;;35.30;21.27;;;;;;;;;;5043294;28;20037;-83
2022/02/27 09:55:19;;;;;;;32.03;20.80;;;;;;;;;;5061434;28;20496;-85
2022/02/27 09:57:47;;;;;;;31.00;20.23;;;;;;;;;;5060844;28;20063;-85
2022/02/27 10:00:14;;;;;;;28.77;18.73;;;;;;;;;;5043213;28;20025;-84
2022/02/27 10:02:59;;;;;;;31.48;20.23;;;;;;;;;;5061241;28;20028;-83
2022/02/27 10:05:25;;;;;;;33.47;20.77;;;;;;;;;;5061783;28;20025;-84
2022/02/27 10:07:58;;;;;;;30.52;18.50;;;;;;;;;;5051184;28;20092;-84
2022/02/27 10:10:24;;;;;;;30.80;18.77;;;;;;;;;;5049407;28;20021;-85
2022/02/27 10:12:50;;;;;;;31.40;20.10;;;;;;;;;;5060656;28;20116;-83
2022/02/27 10:15:17;;;;;;;32.50;19.27;;;;;;;;;;5057132;28;20063;-83
2022/02/27 10:17:44;;;;;;;32.08;19.38;;;;;;;;;;5058250;28;20056;-83
2022/02/27 10:20:10;;;;;;;29.83;18.80;;;;;;;;;;5055496;28;20025;-83
2022/02/27 10:22:37;;;;;;;31.65;19.15;;;;;;;;;;5058498;28;20029;-84
2022/02/27 10:25:07;;;;;;;25.40;18.60;;;;;;;;;;5061260;28;20033;-84
2022/02/27 10:27:42;;;;;;;27.77;17.83;;;;;;;;;;5060560;28;20017;-84
2022/02/27 10:30:15;;;;;;;29.83;18.35;;;;;;;;;;5042933;28;20245;-84
2022/02/27 10:32:48;;;;;;;26.33;17.52;;;;;;;;;;5041998;28;20098;-84
2022/02/27 10:35:33;;;;;;;26.60;16.75;;;;;;;;;;5048273;28;20036;-83
2022/02/27 10:38:01;;;;;;;28.38;18.42;;;;;;;;;;5058543;28;20025;-83
2022/02/27 10:40:34;;;;;;;29.10;18.88;;;;;;;;;;5058826;28;20115;-83
2022/02/27 10:43:01;;;;;;;29.00;18.85;;;;;;;;;;5055654;28;20040;-82
2022/02/27 10:45:28;;;;;;;27.02;17.05;;;;;;;;;;5038351;28;20029;-82
2022/02/27 10:48:04;;;;;;;24.45;16.92;;;;;;;;;;5056422;28;20025;-83
2022/02/27 10:50:30;;;;;;;23.45;15.80;;;;;;;;;;5038966;28;20025;-84
2022/02/27 10:52:56;;;;;;;29.38;17.15;;;;;;;;;;5056940;28;20035;-83
2022/02/27 10:55:22;;;;;;;26.50;16.45;;;;;;;;;;5038605;28;20092;-83
2022/02/27 10:57:50;;;;;;;26.60;17.23;;;;;;;;;;5057638;28;20360;-83
2022/02/27 11:00:17;;;;;;;20.85;14.70;;;;;;;;;;5039306;28;20036;-82
2022/02/27 11:02:44;;;;;;;22.70;14.90;;;;;;;;;;5059453;28;20069;-82
2022/02/27 11:05:11;;;;;;;25.63;16.25;;;;;;;;;;5057745;28;20029;-83
2022/02/27 11:07:38;;;;;;;21.05;13.88;;;;;;;;;;5056588;28;20017;-82
2022/02/27 11:10:05;;;;;;;27.40;16.90;;;;;;;;;;5057582;28;20044;-82
2022/02/27 11:12:32;;;;;;;22.50;14.93;;;;;;;;;;5040105;28;20029;-82
2022/02/27 11:14:58;;;;;;;20.02;14.23;;;;;;;;;;5057984;28;20033;-83
2022/02/27 11:17:25;;;;;;;22.85;13.90;;;;;;;;;;5059434;28;20059;-83
2022/02/27 11:19:51;;;;;;;22.88;14.80;;;;;;;;;;5058336;28;20044;-83
2022/02/27 11:22:17;;;;;;;24.00;14.20;;;;;;;;;;5040681;28;20349;-83
2022/02/27 11:24:45;;;;;;;22.25;13.68;;;;;;;;;;5040986;28;20033;-82
2022/02/27 11:27:14;;;;;;;18.83;12.50;;;;;;;;;;5057941;28;20062;-82
2022/02/27 11:29:41;;;;;;;20.67;12.73;;;;;;;;;;5057342;28;20521;-83
2022/02/27 11:32:07;;;;;;;20.08;13.30;;;;;;;;;;5056914;28;20021;-82
2022/02/27 11:34:40;;;;;;;21.27;14.48;;;;;;;;;;5056161;28;20032;-83
2022/02/27 11:37:06;;;;;;;19.65;13.20;;;;;;;;;;5057986;28;20068;-82
2022/02/27 11:42:36;;;;;;;20.27;12.30;;;;;;;;;;5058044;28;20068;-84
2022/02/27 11:45:03;;;;;;;17.65;12.02;;;;;;;;;;5041740;28;20412;-84
2022/02/27 11:47:47;;;;;;;16.65;11.82;;;;;;;;;;5059530;28;20028;-83
2022/02/27 11:50:24;;;;;;;21.13;11.30;;;;;;;;;;5059425;28;20018;-84
2022/02/27 11:52:50;;;;;;;18.88;12.10;;;;;;;;;;5058668;28;20029;-84
2022/02/27 11:55:36;;;;;;;17.20;10.90;;;;;;;;;;5058991;28;20025;-85
2022/02/27 11:58:02;;;;;;;17.95;12.07;;;;;;;;;;5041760;28;20365;-84
2022/02/27 12:00:39;;;;;;;16.67;11.75;;;;;;;;;;5059329;28;20041;-84
2022/02/27 12:03:24;;;;;;;14.30;9.57;;;;;;;;;;5058895;28;20098;-84
2022/02/27 12:05:51;;;;;;;16.92;11.10;;;;;;;;;;5058418;28;20055;-84
2022/02/27 12:08:18;;;;;;;17.75;12.45;;;;;;;;;;5059455;28;20392;-83
2022/02/27 12:10:45;;;;;;;15.82;10.65;;;;;;;;;;5059368;28;20444;-84
2022/02/27 12:13:19;;;;;;;15.90;10.07;;;;;;;;;;5058875;28;20052;-84
2022/02/27 12:15:45;;;;;;;17.25;11.40;;;;;;;;;;5059075;28;20451;-84
2022/02/27 12:18:17;;;;;;;15.88;10.35;;;;;;;;;;5041027;28;20025;-84
2022/02/27 12:20:44;;;;;;;17.88;11.38;;;;;;;;;;5057095;28;20492;-83
2022/02/27 12:23:34;;;;;;;17.83;10.82;;;;;;;;;;5058118;28;20082;-84
2022/02/27 12:26:01;;;;;;;18.50;11.35;;;;;;;;;;5046700;28;20060;-84
2022/02/27 12:29:00;;;;;;;20.95;13.73;;;;;;;;;;5040381;28;20439;-82
2022/02/27 12:31:32;;;;;;;20.30;12.93;;;;;;;;;;4943266;29;20036;-81
2022/02/27 12:33:58;;;;;;;18.93;12.83;;;;;;;;;;4941689;29;20039;-82
2022/02/27 12:36:26;;;;;;;18.25;11.98;;;;;;;;;;4939737;29;20375;-82
2022/02/27 12:39:01;;;;;;;18.27;12.52;;;;;;;;;;4948601;29;20027;-81
2022/02/27 12:41:28;;;;;;;19.73;12.85;;;;;;;;;;4937649;29;20126;-83
2022/02/27 12:43:54;;;;;;;18.80;12.45;;;;;;;;;;4938506;29;20044;-84
2022/02/27 12:46:21;;;;;;;17.85;12.35;;;;;;;;;;4956942;28;20031;-83
2022/02/27 12:51:33;;;;;;;17.55;11.20;;;;;;;;;;4957630;29;20088;-84
2022/02/27 12:53:59;;;;;;;15.18;10.65;;;;;;;;;;4956851;28;20039;-84
2022/02/27 12:56:26;;;;;;;16.00;10.05;;;;;;;;;;4957790;29;20496;-83
2022/02/27 12:58:55;;;;;;;14.40;10.20;;;;;;;;;;4951316;29;20023;-83
2022/02/27 13:01:31;;;;;;;17.05;11.05;;;;;;;;;;4952506;29;20090;-83
2022/02/27 13:04:04;;;;;;;16.58;11.00;;;;;;;;;;4957028;29;20031;-82
2022/02/27 13:06:34;;;;;;;16.10;10.73;;;;;;;;;;4981147;28;20026;-83
2022/02/27 13:09:00;;;;;;;15.70;10.88;;;;;;;;;;5052995;28;20093;-83
2022/02/27 13:11:39;;;;;;;18.73;11.18;;;;;;;;;;5039501;28;20029;-84
2022/02/27 13:14:05;;;;;;;17.42;12.52;;;;;;;;;;5045698;28;20028;-82
2022/02/27 13:16:32;;;;;;;19.45;12.30;;;;;;;;;;5071298;28;20415;-82
2022/02/27 13:18:58;;;;;;;19.30;12.13;;;;;;;;;;5063709;28;20044;-84
2022/02/27 13:21:24;;;;;;;20.42;12.43;;;;;;;;;;5056756;28;20045;-84
2022/02/27 13:24:00;;;;;;;18.05;11.48;;;;;;;;;;5057515;28;20044;-82
2022/02/27 13:26:28;;;;;;;20.35;12.35;;;;;;;;;;5055050;28;20022;-83
2022/02/27 13:28:55;;;;;;;17.98;11.60;;;;;;;;;;5056069;28;20024;-84
2022/02/27 13:31:22;;;;;;;18.73;11.52;;;;;;;;;;5036526;28;20017;-84
2022/02/27 13:33:49;;;;;;;19.80;11.90;;;;;;;;;;5056142;28;20100;-84
2022/02/27 13:36:15;;;;;;;17.50;11.75;;;;;;;;;;5055590;28;20049;-83
2022/02/27 13:38:41;;;;;;;19.70;11.80;;;;;;;;;;5032828;28;20026;-84
2022/02/27 13:41:07;;;;;;;16.83;10.32;;;;;;;;;;5037329;28;20032;-85
2022/02/27 13:43:38;;;;;;;14.13;8.23;;;;;;;;;;5054449;28;20060;-82
2022/02/27 13:46:08;;;;;;;14.95;9.07;;;;;;;;;;5055981;28;20555;-83
2022/02/27 13:48:35;;;;;;;14.75;9.45;;;;;;;;;;5055803;28;20505;-84
2022/02/27 13:51:01;;;;;;;15.02;9.60;;;;;;;;;;5038742;28;20725;-83
2022/02/27 13:53:31;;;;;;;15.18;9.40;;;;;;;;;;5056688;28;20096;-83
2022/02/27 13:56:10;;;;;;;16.52;10.05;;;;;;;;;;5036628;28;20052;-83
2022/02/27 13:58:36;;;;;;;18.77;11.38;;;;;;;;;;5053171;28;20010;-83
2022/02/27 14:01:13;;;;;;;18.80;11.48;;;;;;;;;;5056458;28;20017;-83
2022/02/27 14:03:41;;;;;;;17.60;11.45;;;;;;;;;;5056475;28;20029;-83
2022/02/27 14:06:08;;;;;;;16.58;10.55;;;;;;;;;;5057201;28;20021;-84
2022/02/27 14:08:35;;;;;;;17.17;10.60;;;;;;;;;;5037639;28;20547;-83
2022/02/27 14:11:04;;;;;;;18.00;10.40;;;;;;;;;;5037827;28;20050;-84
2022/02/27 14:13:30;;;;;;;16.83;11.23;;;;;;;;;;5040504;28;20032;-82
2022/02/27 14:16:03;;;;;;;15.15;10.38;;;;;;;;;;5057111;28;20059;-83
2022/02/27 14:18:35;;;;;;;16.25;10.73;;;;;;;;;;5058619;28;20031;-83
2022/02/27 14:21:16;;;;;;;18.23;11.07;;;;;;;;;;5057953;28;20029;-82
2022/02/27 14:23:50;;;;;;;18.23;11.35;;;;;;;;;;5058776;28;20033;-81